Terminal Aerodrome Forecast
Issued by NWS Cleveland, OH

Home | Current Version | Previous Version | Graphics & Text | Print | Product List | Glossary On
Versions: 1 2 3 4 5 6 7 8 9 10 11 12 13 14 15 16 17 18
000
FTUS41 KCLE 282320
TAFYNG
TAF
KYNG 282320Z 2900/2924 29010G18KT P6SM SCT035 BKN050
     FM290200 22003KT P6SM SCT250
     FM290900 VRB03KT 5SM BR SCT120 BKN250
     FM291400 18005KT P6SM SCT050 BKN120
     FM292000 20008KT P6SM VCSH BKN050=

USA.gov is the U.S. government's official web portal to all federal, state and local government web resources and services.